Flight Track Log - Related Links

Times and Time Zones

All times are in EDT time to prevent confusion due to time zone crossing. See the SWA1015 flight status page for this flight to view local times or setup timezone preferences in your user account.

Time Position Orientation Groundspeed Altitude Reporting Facility
EDT Latitude Longitude Course Direction KTS MPH feet Rate Location/Type
Tue 09:38:49 AM 37.3833 -121.9500 141° Southeast 154 177 1,800  Level Northern Cal TRACON
Tue 09:39:49 AM 37.4333 -121.9667 345° North 192 221 4,800 1,524 Climbing Northern Cal TRACON
Tue 09:40:55 AM 37.4000 -121.9000 122° Southeast 230 265 5,000 1,000 Climbing Northern Cal TRACON
Tue 09:41:49 AM 37.3667 -121.8333 122° Southeast 237 273 6,800 2,053 Climbing Northern Cal TRACON
Tue 09:42:11 AM 37.3628 -121.8219 113° Southeast 235 270 7,600 3,181 Climbing Oakland Center
Tue 09:43:12 AM 37.2894 -121.7450 140° Southeast 307 353 11,200 3,344 Climbing Oakland Center
Tue 09:44:00 AM 37.2228 -121.1486 141° Southeast  Level Estimated
Tue 09:44:13 AM 37.2178 -121.6611 137° Southeast 351 404 14,400  Level Oakland Center
Tue 09:45:14 AM 37.1361 -121.5689 138° Southeast 392 451 17,300 2,361 Climbing Oakland Center
Tue 09:46:15 AM 37.0531 -121.4808 140° Southeast 442 509 19,200 2,607 Climbing Oakland Center
Tue 09:47:16 AM 36.9561 -121.3731 138° Southeast 464 534 22,600 3,372 Climbing Oakland Center
Tue 09:48:16 AM 36.8372 -121.2408 138° Southeast 475 547 26,000 2,579 Climbing Oakland Center
Tue 09:49:17 AM 36.7403 -121.1419 141° Southeast 487 560 27,800 1,770 Climbing Oakland Center
Tue 09:50:18 AM 36.6322 -121.0253 139° Southeast 510 587 29,600 1,918 Climbing Oakland Center
Tue 09:51:19 AM 36.5364 -120.8853 130° Southeast 531 611 31,700 1,770 Climbing Oakland Center
Tue 09:52:20 AM 36.4431 -120.7383 128° Southeast 539 620 33,200 1,820 Climbing Oakland Center
Tue 09:53:21 AM 36.3464 -120.5908 129° Southeast 548 631 35,400 1,918 Climbing Oakland Center
Tue 09:54:22 AM 36.2506 -120.4447 129° Southeast 547 629 37,100 1,574 Climbing Oakland Center
Tue 09:55:23 AM 36.1569 -120.3011 129° Southeast 538 619 38,600 1,574 Climbing Oakland Center
Tue 09:56:24 AM 36.0650 -120.1622 129° Southeast 522 601 40,300 1,180 Climbing Oakland Center
Tue 09:57:25 AM 35.9744 -120.0292 130° Southeast 507 583 41,000 347 Climbing Oakland Center
Tue 09:58:25 AM 35.8833 -119.8911 129° Southeast 512 589 41,000  Level Oakland Center
Tue 09:59:26 AM 35.7806 -119.7206 127° Southeast 513 590 41,000  Level Oakland Center
Tue 10:00:27 AM 35.7164 -119.5572 116° Southeast 528 608 41,000  Level Oakland Center
Tue 10:01:28 AM 35.6494 -119.3983 117° Southeast 523 602 41,000  Level Oakland Center
Tue 10:02:29 AM 35.5847 -119.2406 117° Southeast 517 595 41,000  Level Oakland Center
Tue 10:03:30 AM 35.5217 -119.0839 116° Southeast 511 588 41,000  Level Oakland Center
Tue 10:04:31 AM 35.4550 -118.9281 118° Southeast 513 590 41,000  Level Oakland Center
Tue 10:05:32 AM 35.3903 -118.7728 117° Southeast 511 588 41,000  Level Oakland Center
Tue 10:06:33 AM 35.3253 -118.6194 117° Southeast 508 585 41,000  Level Oakland Center
Tue 10:07:34 AM 35.2603 -118.4656 117° Southeast 508 585 41,000  Level Oakland Center
Tue 10:08:35 AM 35.1950 -118.3128 118° Southeast 508 585 41,000  Level Oakland Center
Tue 10:09:49 AM 35.1142 -118.1233 118° Southeast 508 585 41,000  Level Los Angeles Center
Tue 10:10:51 AM 35.0478 -117.9714 118° Southeast 510 587 41,000  Level Los Angeles Center
Tue 10:11:52 AM 34.9819 -117.8222 118° Southeast 506 582 41,000  Level Los Angeles Center
Tue 10:12:54 AM 34.9053 -117.6428 117° Southeast 509 586 41,000  Level Los Angeles Center
Tue 10:13:55 AM 34.8406 -117.4950 118° Southeast 504 580 41,000  Level Los Angeles Center
Tue 10:14:57 AM 34.7744 -117.3442 118° Southeast 508 585 41,000  Level Los Angeles Center
Tue 10:15:59 AM 34.7092 -117.1936 118° Southeast 507 583 41,000  Level Los Angeles Center
Tue 10:17:00 AM 34.6422 -117.0436 118° Southeast 504 580 41,000  Level Los Angeles Center
Tue 10:18:02 AM 34.5767 -116.8947 118° Southeast 499 574 41,000  Level Los Angeles Center
Tue 10:19:04 AM 34.4931 -116.7164 120° Southeast 507 583 41,000  Level Los Angeles Center
Tue 10:20:05 AM 34.4278 -116.5683 118° Southeast 502 578 41,000  Level Los Angeles Center
Tue 10:21:07 AM 34.3625 -116.4219 118° Southeast 497 572 41,000  Level Los Angeles Center
Tue 10:22:09 AM 34.2956 -116.2739 119° Southeast 502 578 41,000  Level Los Angeles Center
Tue 10:23:22 AM 34.2308 -116.1250 118° Southeast 502 578 41,000  Level Los Angeles Center
Tue 10:24:24 AM 34.1508 -115.9517 119° Southeast 495 570 41,000  Level Los Angeles Center
Tue 10:25:26 AM 34.0697 -115.7778 119° Southeast 491 565 41,000  Level Los Angeles Center
Tue 10:26:28 AM 34.0031 -115.6331 119° Southeast 493 567 41,000  Level Los Angeles Center
Tue 10:27:30 AM 33.9344 -115.4858 119° Southeast 500 575 41,000  Level Los Angeles Center
Tue 10:28:31 AM 33.8658 -115.3392 119° Southeast 502 578 41,000  Level Los Angeles Center
Tue 10:29:33 AM 33.7978 -115.1919 119° Southeast 504 580 41,000  Level Los Angeles Center
Tue 10:30:35 AM 33.7283 -115.0444 119° Southeast 505 581 41,000  Level Los Angeles Center
Tue 10:31:37 AM 33.6592 -114.8975 119° Southeast 505 581 41,000  Level Los Angeles Center
Tue 10:32:39 AM 33.5925 -114.7489 118° Southeast 506 582 41,000  Level Los Angeles Center
Tue 10:33:40 AM 33.5569 -114.5489 102° East 511 588 41,000  Level Los Angeles Center
Tue 10:34:42 AM 33.5286 -114.3856 102° East 502 578 41,000  Level Los Angeles Center
Tue 10:35:44 AM 33.5003 -114.2228 102° East 503 579 41,000  Level Los Angeles Center
Tue 10:36:45 AM 33.4700 -114.0606 103° East 499 574 41,000  Level Los Angeles Center
Tue 10:37:00 AM 33.4656 -114.0100 96° East 499 574 41,000  Level Albuquerque Center
Tue 10:38:02 AM 33.4356 -113.8489 103° East 497 572 41,000  Level Albuquerque Center
Tue 10:39:04 AM 33.4064 -113.6858 102° East 500 575 41,000  Level Albuquerque Center
Tue 10:40:06 AM 33.3767 -113.5231 102° East 502 578 41,000  Level Albuquerque Center
Tue 10:41:08 AM 33.3467 -113.3597 102° East 502 578 41,000  Level Albuquerque Center
Tue 10:42:10 AM 33.3169 -113.1992 102° East 497 572 41,000  Level Albuquerque Center
Tue 10:43:12 AM 33.2803 -113.0033 103° East 500 575 41,000  Level Albuquerque Center
Tue 10:44:14 AM 33.2497 -112.8425 103° East 497 572 41,000  Level Albuquerque Center
Tue 10:45:16 AM 33.2189 -112.6808 103° East 497 572 41,000  Level Albuquerque Center
Tue 10:46:18 AM 33.1856 -112.5069 103° East 497 572 41,000  Level Albuquerque Center
Tue 10:47:20 AM 33.1553 -112.3458 103° East 500 575 41,000  Level Albuquerque Center
Tue 10:48:22 AM 33.1236 -112.1853 103° East 501 577 41,000  Level Albuquerque Center
Tue 10:49:24 AM 33.0925 -112.0267 103° East 497 572 41,000  Level Albuquerque Center
Tue 10:50:26 AM 33.0622 -111.8692 103° East 492 566 41,000  Level Albuquerque Center
Tue 10:51:28 AM 33.0253 -111.6800 103° East 491 565 41,000  Level Albuquerque Center
Tue 10:52:30 AM 32.9931 -111.5258 104° East 485 558 41,000  Level Albuquerque Center
Tue 10:53:32 AM 32.9625 -111.3692 103° East 487 560 41,000  Level Albuquerque Center
Tue 10:54:34 AM 32.9311 -111.2133 103° East 487 560 41,000  Level Albuquerque Center
Tue 10:55:36 AM 32.8992 -111.0569 104° East 489 563 41,000  Level Albuquerque Center
Tue 10:56:38 AM 32.8672 -110.9025 104° East 486 559 41,000  Level Albuquerque Center
Tue 10:57:40 AM 32.8294 -110.7156 103° East 487 560 41,000  Level Albuquerque Center
Tue 10:58:42 AM 32.7997 -110.5764 104° East 486 559 41,000  Level Albuquerque Center
Tue 10:59:44 AM 32.7597 -110.3911 104° East 486 559 41,000  Level Albuquerque Center
Tue 11:00:46 AM 32.7275 -110.2375 104° East 487 560 41,000  Level Albuquerque Center
Tue 11:01:48 AM 32.6956 -110.0836 104° East 487 560 41,000  Level Albuquerque Center
Tue 11:02:50 AM 32.6617 -109.9303 105° East 485 558 41,000  Level Albuquerque Center
Tue 11:03:52 AM 32.6278 -109.7794 105° East 483 556 41,000  Level Albuquerque Center
Tue 11:04:54 AM 32.5881 -109.5975 104° East 481 554 41,000  Level Albuquerque Center
Tue 11:05:56 AM 32.5553 -109.4469 104° East 479 551 41,000  Level Albuquerque Center
Tue 11:06:58 AM 32.5208 -109.2947 105° East 483 556 41,000  Level Albuquerque Center
Tue 11:08:00 AM 32.4881 -109.1428 104° East 485 558 41,000  Level Albuquerque Center
Tue 11:09:02 AM 32.4475 -108.9622 105° East 482 555 41,000  Level Albuquerque Center
Tue 11:10:04 AM 32.4139 -108.8119 105° East 479 551 41,000  Level Albuquerque Center
Tue 11:11:06 AM 32.3792 -108.6600 105° East 483 556 41,000  Level Albuquerque Center
Tue 11:12:08 AM 32.3447 -108.5083 105° East 483 556 41,000  Level Albuquerque Center
Tue 11:13:10 AM 32.3069 -108.3392 105° East 481 554 41,000  Level Albuquerque Center
Tue 11:14:13 AM 32.2719 -108.1875 105° East 481 554 41,000  Level Albuquerque Center
Tue 11:15:15 AM 32.2367 -108.0383 106° East 477 549 41,000  Level Albuquerque Center
Tue 11:16:17 AM 32.2025 -107.8878 105° East 477 549 41,000  Level Albuquerque Center
Tue 11:17:19 AM 32.1600 -107.7067 105° East 478 550 41,000  Level Albuquerque Center
Tue 11:18:21 AM 32.1253 -107.5558 105° East 481 554 41,000  Level Albuquerque Center
Tue 11:19:23 AM 32.0889 -107.4056 106° East 481 554 41,000  Level Albuquerque Center
Tue 11:20:25 AM 32.0536 -107.2558 105° East 481 554 41,000  Level Albuquerque Center
Tue 11:21:27 AM 32.0119 -107.0769 105° East 478 550 41,000  Level Albuquerque Center
Tue 11:22:29 AM 31.9769 -106.9278 105° East 477 549 41,000  Level Albuquerque Center
Tue 11:23:31 AM 31.9403 -106.7817 106° East 472 543 41,000  Level Albuquerque Center
Tue 11:24:33 AM 31.9031 -106.6331 106° East 475 547 41,000  Level Albuquerque Center
Tue 11:25:35 AM 31.8667 -106.4886 106° East 477 549 41,000  Level Albuquerque Center
Tue 11:26:37 AM 31.8250 -106.3094 105° East 477 549 41,000  Level Albuquerque Center
Tue 11:27:39 AM 31.8000 -106.1586 101° East 474 545 41,000  Level Albuquerque Center
Tue 11:28:41 AM 31.7825 -106.0053 98° East 473 544 41,000  Level Albuquerque Center
Tue 11:29:43 AM 31.7633 -105.8500 98° East 479 551 41,000  Level Albuquerque Center
Tue 11:30:45 AM 31.7444 -105.6942 98° East 481 554 41,000  Level Albuquerque Center
Tue 11:31:47 AM 31.7258 -105.5372 98° East 485 558 41,000  Level Albuquerque Center
Tue 11:32:49 AM 31.7022 -105.3517 98° East 480 552 41,000  Level Albuquerque Center
Tue 11:33:51 AM 31.6828 -105.1969 98° East 478 550 41,000  Level Albuquerque Center
Tue 11:34:53 AM 31.6642 -105.0417 98° East 480 552 41,000  Level Albuquerque Center
Tue 11:35:55 AM 31.6450 -104.8867 98° East 479 551 41,000  Level Albuquerque Center
Tue 11:36:57 AM 31.6256 -104.7319 98° East 479 551 41,000  Level Albuquerque Center
Tue 11:38:00 AM 31.6042 -104.5758 99° East 480 552 41,000  Level Albuquerque Center
Tue 11:39:02 AM 31.5839 -104.4219 99° East 479 551 41,000  Level Albuquerque Center
Tue 11:40:04 AM 31.5603 -104.2347 98° East 481 554 41,000  Level Albuquerque Center
Tue 11:41:06 AM 31.5394 -104.0789 99° East 482 555 41,000  Level Albuquerque Center
Tue 11:42:08 AM 31.5178 -103.9250 99° East 481 554 41,000  Level Albuquerque Center
Tue 11:43:10 AM 31.4972 -103.7706 99° East 480 552 41,000  Level Albuquerque Center
Tue 11:44:12 AM 31.4750 -103.6206 100° East 477 549 41,000  Level Albuquerque Center
Tue 11:45:14 AM 31.4550 -103.4661 99° East 477 549 41,000  Level Albuquerque Center
Tue 11:46:16 AM 31.4333 -103.2814 98° East 478 550 41,000  Level Albuquerque Center
Tue 11:47:18 AM 31.4150 -103.1286 98° East 476 548 41,000  Level Albuquerque Center
Tue 11:48:20 AM 31.3944 -102.9756 99° East 476 548 41,000  Level Albuquerque Center
Tue 11:49:22 AM 31.3750 -102.8211 98° East 478 550 41,000  Level Albuquerque Center
Tue 11:50:24 AM 31.3547 -102.6675 99° East 478 550 41,000  Level Albuquerque Center
Tue 11:51:26 AM 31.3347 -102.5103 98° East 480 552 41,000  Level Albuquerque Center
Tue 11:52:28 AM 31.3103 -102.3244 99° East 484 557 41,000  Level Albuquerque Center
Tue 11:53:30 AM 31.2906 -102.1678 98° East 486 559 41,000  Level Albuquerque Center
Tue 11:54:32 AM 31.2686 -102.0142 99° East 485 558 41,000  Level Albuquerque Center
Tue 11:55:34 AM 31.2481 -101.8453 98° East 481 554 41,000  Level Albuquerque Center
Tue 11:56:36 AM 31.2256 -101.6919 100° East 480 552 41,000  Level Albuquerque Center
Tue 11:57:44 AM 31.2006 -101.5067 99° East 483 556 41,000  Level Houston Center
Tue 11:58:46 AM 31.1792 -101.3525 99° East 481 554 41,000  Level Houston Center
Tue 11:59:48 AM 31.1575 -101.2039 100° East 484 557 41,000  Level Houston Center
Tue 12:00:51 PM 31.1378 -101.0481 98° East 485 558 41,000  Level Houston Center
Tue 12:01:53 PM 31.1161 -100.8928 99° East 486 559 41,000  Level Houston Center
Tue 12:02:55 PM 31.0942 -100.7392 99° East 482 555 41,000  Level Houston Center
Tue 12:03:58 PM 31.0667 -100.5564 100° East 477 549 41,000  Level Houston Center
Tue 12:04:59 PM 31.0439 -100.4047 100° East 474 545 41,000  Level Houston Center
Tue 12:06:01 PM 31.0222 -100.2517 99° East 477 549 41,000 -242 Level Houston Center
Tue 12:07:03 PM 30.9994 -100.0986 100° East 479 551 40,500 -726 Descending Houston Center
Tue 12:08:05 PM 30.9769 -99.9453 100° East 479 551 39,500 -960 Descending Houston Center
Tue 12:09:08 PM 30.9539 -99.7925 100° East 478 550 38,500 -2,016 Descending Houston Center
Tue 12:10:10 PM 30.9258 -99.6108 100° East 476 548 35,300 -2,806 Descending Houston Center
Tue 12:11:12 PM 30.9006 -99.4583 101° East 478 550 32,700 -2,371 Descending Houston Center
Tue 12:12:14 PM 30.8789 -99.3114 100° East 462 532 30,400 -2,226 Descending Houston Center
Tue 12:13:16 PM 30.8564 -99.1692 100° East 447 514 28,100 -2,129 Descending Houston Center
Tue 12:14:18 PM 30.8342 -99.0350 101° East 430 495 26,000 -2,226 Descending Houston Center
Tue 12:15:20 PM 30.8094 -98.8806 101° East 411 473 23,500 -2,177 Descending Houston Center
Tue 12:16:22 PM 30.7906 -98.7519 100° East 403 464 21,500 -1,968 Descending Houston Center
Tue 12:17:25 PM 30.7786 -98.6231 96° East 399 459 19,400 -2,064 Descending Houston Center
Tue 12:18:27 PM 30.7661 -98.4983 97° East 388 447 17,200 -2,081 Descending Houston Center
Tue 12:19:29 PM 30.7531 -98.3756 97° East 382 440 15,100 -2,032 Descending Houston Center
Tue 12:20:31 PM 30.7400 -98.2567 97° East 370 426 13,000 -1,984 Descending Houston Center
Tue 12:21:33 PM 30.7267 -98.1394 98° East 366 421 11,000 -1,597 Descending Houston Center
Tue 12:22:35 PM 30.6936 -98.0247 108° East 327 376 9,700 -1,161 Descending Houston Center
Tue 12:23:37 PM 30.6481 -97.9453 124° Southeast 298 343 8,600 -1,016 Descending Houston Center
Tue 12:24:39 PM 30.6031 -97.8675 124° Southeast 291 335 7,600 -1,248 Descending Houston Center
Tue 12:25:42 PM 30.5608 -97.7894 122° Southeast 287 330 6,000 -1,056 Descending Houston Center
Tue 12:26:44 PM 30.5225 -97.7142 121° Southeast 278 320 5,400 -726 Descending Houston Center
Tue 12:27:46 PM 30.4706 -97.6864 155° Southeast 225 259 4,500 -774 Descending Houston Center
Tue 12:28:48 PM 30.4069 -97.6842 178° South 199 229 3,800 -677 Descending Houston Center
Tue 12:29:50 PM 30.3575 -97.6831 179° South 183 211 3,100 -677 Descending Houston Center
Tue 12:30:52 PM 30.3086 -97.6819 179° South 177 204 2,400 -774 Descending Houston Center
Tue 12:31:54 PM 30.2617 -97.6800 178° South 173 199 1,500 -629 Descending Houston Center
Tue 12:32:56 PM 30.2286 -97.6803 180° South 153 176 1,100 -387 Descending Houston Center
Tue 12:34:00 PM 30.1945 -97.6699 180° South  Level Estimated
Tue 12:41:00 PM 30.1945 -97.6699 180° South  Level Estimated

Login

Don't have an account? Register now (free) for customized features, flight alerts, and more!